Bessemer, Michigan
Current Conditions -  °F | °C
As of 3:55 AM on Thursday 23 Oct 2014 (Local Time) from KIWD Reporting Station
Scattered Clouds Scattered Clouds  
Wind Chill: 50°   Ceiling: Unl
Heat Index: 50°   Visibility: 10mi
Dew Point: 37°   Wind: 10mph
Humidity: 62%   Direction: 190°S
Pressure: 30.01"   Gusts: 18mph
Location:  46.48°N, 90.05°W
Report Text: KIWD 230855Z AUTO 19009G16KT 10SM SCT065 SCT100 10/03 A3001 RMK AO1 57014
Loading
Personal Weather Stations






























Interactive Weather Map New forecast layout! Learn more

10-Day Weather Forecast

Advertisements
Track Severe Weather on mobile